Time;durP1;ratioP1;P1;durP2;ratioP2;P2;SDS_P1;SDS_P2;PMS_P1;PMS_P2;Temp;Humidity;BMP_temperature;BMP_pressure;BME280_temperature;BME280_humidity;BME280_pressure;Samples;Min_cycle;Max_cycle;Signal;HPM_P1;HPM_P2
2023/05/27 00:01:17;;;;;;;;;;;17.90;99.90;;;;;;5075018;28;19981;-65
2023/05/27 00:03:42;;;;;;;;;;;18.00;99.90;;;;;;5074833;28;19982;-63
2023/05/27 00:06:08;;;;;;;;;;;18.10;99.90;;;;;;5074734;28;20085;-62
2023/05/27 00:08:33;;;;;;;;;;;18.00;99.90;;;;;;5074616;28;20009;-62
2023/05/27 00:10:59;;;;;;;;;;;18.10;99.90;;;;;;5074624;28;19985;-62
2023/05/27 00:13:24;;;;;;;;;;;18.10;99.90;;;;;;5074485;28;19989;-65
2023/05/27 00:15:50;;;;;;;;;;;18.00;99.90;;;;;;5074628;28;19982;-65
2023/05/27 00:18:15;;;;;;;;;;;18.00;99.90;;;;;;5074795;28;19985;-63
2023/05/27 00:20:41;;;;;;;;;;;17.90;99.90;;;;;;5074431;28;20443;-64
2023/05/27 00:23:07;;;;;;;;;;;17.90;99.90;;;;;;5074590;28;20071;-64
2023/05/27 00:25:33;;;;;;;;;;;18.00;99.90;;;;;;5074554;28;20027;-63
2023/05/27 00:27:59;;;;;;;;;;;17.90;99.90;;;;;;5074293;28;20103;-63
2023/05/27 00:30:24;;;;;;;;;;;17.80;99.90;;;;;;5074294;28;20500;-63
2023/05/27 00:32:50;;;;;;;;;;;17.70;99.90;;;;;;5074245;28;20076;-65
2023/05/27 00:35:15;;;;;;;;;;;17.70;99.90;;;;;;5074209;28;20458;-62
2023/05/27 00:37:41;;;;;;;;;;;17.70;99.90;;;;;;5074142;28;20355;-65
2023/05/27 00:40:09;;;;;;;;;;;17.70;99.90;;;;;;5073924;28;19982;-64
2023/05/27 00:42:35;;;;;;;;;;;17.80;99.90;;;;;;5074190;28;19981;-65
2023/05/27 00:45:00;;;;;;;;;;;17.80;99.90;;;;;;5073706;28;20043;-63
2023/05/27 00:47:28;;;;;;;;;;;17.90;99.90;;;;;;5074037;28;20016;-63
2023/05/27 00:49:54;;;;;;;;;;;17.80;99.90;;;;;;5073949;28;19997;-63
2023/05/27 00:52:20;;;;;;;;;;;17.70;99.90;;;;;;5073910;28;19982;-64
2023/05/27 00:54:45;;;;;;;;;;;17.60;99.90;;;;;;5073743;28;19982;-62
2023/05/27 00:57:11;;;;;;;;;;;17.60;99.90;;;;;;5073973;28;19989;-64
2023/05/27 00:59:36;;;;;;;;;;;17.50;99.90;;;;;;5073843;28;20046;-65
2023/05/27 01:02:02;;;;;;;;;;;17.50;99.90;;;;;;5073822;28;19988;-63
2023/05/27 01:04:27;;;;;;;;;;;17.40;99.90;;;;;;5073821;28;20439;-63
2023/05/27 01:06:53;;;;;;;;;;;17.40;99.90;;;;;;5073737;28;20068;-65
2023/05/27 01:09:19;;;;;;;;;;;17.30;99.90;;;;;;5073450;28;20101;-64
2023/05/27 01:11:48;;;;;;;;;;;17.20;99.90;;;;;;5074086;28;19986;-63
2023/05/27 01:14:15;;;;;;;;;;;17.30;99.90;;;;;;5073812;28;19986;-63
2023/05/27 01:16:43;;;;;;;;;;;17.40;99.90;;;;;;5073534;28;20463;-64
2023/05/27 01:19:12;;;;;;;;;;;17.50;99.90;;;;;;5073658;28;20443;-63
2023/05/27 01:21:39;;;;;;;;;;;17.50;99.90;;;;;;5073525;28;20566;-65
2023/05/27 01:24:05;;;;;;;;;;;17.50;99.90;;;;;;5073578;28;19992;-63
2023/05/27 01:26:31;;;;;;;;;;;17.50;99.90;;;;;;5073855;28;19985;-63
2023/05/27 01:28:56;;;;;;;;;;;17.60;99.90;;;;;;5073465;28;20055;-65
2023/05/27 01:31:27;;;;;;;;;;;17.60;99.90;;;;;;5073509;28;20069;-64
2023/05/27 01:34:00;;;;;;;;;;;17.60;99.90;;;;;;5073794;28;20080;-65
2023/05/27 01:36:28;;;;;;;;;;;17.60;99.90;;;;;;5073347;28;20029;-63
2023/05/27 01:38:54;;;;;;;;;;;17.50;99.90;;;;;;5073592;28;20348;-63
2023/05/27 01:41:22;;;;;;;;;;;17.50;99.90;;;;;;5073541;28;20029;-65
2023/05/27 01:43:49;;;;;;;;;;;17.60;99.90;;;;;;5073107;28;20479;-63
2023/05/27 01:46:15;;;;;;;;;;;17.50;99.90;;;;;;5073458;28;20432;-62
2023/05/27 01:48:40;;;;;;;;;;;17.50;99.90;;;;;;5073415;28;20005;-64
2023/05/27 01:51:06;;;;;;;;;;;17.50;99.90;;;;;;5073333;28;20102;-64
2023/05/27 01:53:32;;;;;;;;;;;17.30;99.90;;;;;;5073309;28;20317;-64
2023/05/27 01:55:57;;;;;;;;;;;17.30;99.90;;;;;;5073251;28;20039;-64
2023/05/27 01:58:23;;;;;;;;;;;17.30;99.90;;;;;;5073367;28;19989;-66
2023/05/27 02:00:48;;;;;;;;;;;17.30;99.90;;;;;;5073189;28;20541;-66
2023/05/27 02:03:14;;;;;;;;;;;17.40;99.90;;;;;;5073318;28;19981;-66
2023/05/27 02:05:40;;;;;;;;;;;17.30;99.90;;;;;;5073355;28;20462;-64
2023/05/27 02:08:05;;;;;;;;;;;17.30;99.90;;;;;;5073690;28;20011;-63
2023/05/27 02:10:31;;;;;;;;;;;17.20;99.90;;;;;;5077049;28;20499;-63
2023/05/27 02:12:56;;;;;;;;;;;17.20;99.90;;;;;;5077053;28;19989;-65
2023/05/27 02:15:23;;;;;;;;;;;17.10;99.90;;;;;;5076827;28;19982;-63
2023/05/27 02:17:54;;;;;;;;;;;17.10;99.90;;;;;;5076900;28;20027;-65
2023/05/27 02:20:23;;;;;;;;;;;17.10;99.90;;;;;;5076744;28;20545;-67
2023/05/27 02:22:52;;;;;;;;;;;17.00;99.90;;;;;;5076692;28;19985;-64
2023/05/27 02:25:17;;;;;;;;;;;16.80;99.90;;;;;;5076891;28;19981;-66
2023/05/27 02:27:47;;;;;;;;;;;16.70;99.90;;;;;;5076628;28;20005;-65
2023/05/27 02:30:13;;;;;;;;;;;16.70;99.90;;;;;;5076569;28;19985;-63
2023/05/27 02:32:38;;;;;;;;;;;16.70;99.90;;;;;;5076598;28;19988;-65
2023/05/27 02:35:04;;;;;;;;;;;16.90;99.90;;;;;;5076616;28;19986;-63
2023/05/27 02:37:30;;;;;;;;;;;16.90;99.90;;;;;;5076460;28;19982;-65
2023/05/27 02:39:56;;;;;;;;;;;17.00;99.90;;;;;;5076553;28;19981;-63
2023/05/27 02:42:21;;;;;;;;;;;17.00;99.90;;;;;;5076446;28;19981;-66
2023/05/27 02:44:47;;;;;;;;;;;17.00;99.90;;;;;;5076168;28;20506;-65
2023/05/27 02:47:12;;;;;;;;;;;17.10;99.90;;;;;;5076248;28;20010;-65
2023/05/27 02:49:38;;;;;;;;;;;17.20;99.90;;;;;;5076015;28;19998;-65
2023/05/27 02:52:04;;;;;;;;;;;17.20;99.90;;;;;;5076384;28;19982;-65
2023/05/27 02:54:29;;;;;;;;;;;17.30;99.90;;;;;;5076072;28;20462;-62
2023/05/27 02:56:55;;;;;;;;;;;17.20;99.90;;;;;;5076279;28;19982;-62
2023/05/27 02:59:20;;;;;;;;;;;17.10;99.90;;;;;;5076198;28;19981;-64
2023/05/27 03:01:46;;;;;;;;;;;17.00;99.90;;;;;;5076068;28;19982;-61
2023/05/27 03:04:11;;;;;;;;;;;16.80;99.90;;;;;;5075953;28;19981;-62
2023/05/27 03:06:37;;;;;;;;;;;16.80;99.90;;;;;;5076036;28;20025;-63
2023/05/27 03:09:03;;;;;;;;;;;16.90;99.90;;;;;;5075824;28;20013;-63
2023/05/27 03:11:29;;;;;;;;;;;16.90;99.90;;;;;;5076055;28;20144;-61
2023/05/27 03:13:54;;;;;;;;;;;16.90;99.90;;;;;;5075880;28;19981;-62
2023/05/27 03:16:20;;;;;;;;;;;17.00;99.90;;;;;;5075872;28;20073;-63
2023/05/27 03:18:46;;;;;;;;;;;17.00;99.90;;;;;;5075513;28;19982;-62
2023/05/27 03:21:11;;;;;;;;;;;16.90;99.90;;;;;;5074685;28;19981;-63
2023/05/27 03:23:37;;;;;;;;;;;16.90;99.90;;;;;;5075780;28;19981;-62
2023/05/27 03:26:02;;;;;;;;;;;17.10;99.90;;;;;;5075510;28;20115;-63
2023/05/27 03:28:28;;;;;;;;;;;17.20;99.90;;;;;;5075508;28;20009;-61
2023/05/27 03:30:55;;;;;;;;;;;17.20;99.90;;;;;;5075570;28;19989;-61
2023/05/27 03:33:22;;;;;;;;;;;17.30;99.90;;;;;;5075248;28;19982;-63
2023/05/27 03:35:47;;;;;;;;;;;17.30;99.90;;;;;;5075764;28;20076;-63
2023/05/27 03:38:13;;;;;;;;;;;17.30;99.90;;;;;;5075511;28;20066;-60
2023/05/27 03:40:39;;;;;;;;;;;17.30;99.90;;;;;;5075517;28;19989;-61
2023/05/27 03:43:04;;;;;;;;;;;17.30;99.90;;;;;;5075160;28;19981;-61
2023/05/27 03:45:30;;;;;;;;;;;17.30;99.90;;;;;;5075356;28;19985;-64
2023/05/27 03:47:56;;;;;;;;;;;17.40;99.90;;;;;;5075112;28;20103;-63
2023/05/27 03:50:21;;;;;;;;;;;17.40;99.90;;;;;;5075028;28;20554;-62
2023/05/27 03:52:47;;;;;;;;;;;17.50;99.90;;;;;;5075221;28;19988;-61
2023/05/27 03:55:13;;;;;;;;;;;17.60;99.90;;;;;;5075025;28;20363;-64
2023/05/27 03:57:38;;;;;;;;;;;17.60;99.90;;;;;;5074971;28;19988;-61
2023/05/27 04:00:07;;;;;;;;;;;17.50;99.90;;;;;;5074983;28;19989;-63
2023/05/27 04:02:33;;;;;;;;;;;17.50;99.90;;;;;;5075034;28;20084;-63
2023/05/27 04:05:00;;;;;;;;;;;17.60;99.90;;;;;;5074849;28;20437;-63
2023/05/27 04:07:26;;;;;;;;;;;17.60;99.90;;;;;;5074866;28;20103;-61
2023/05/27 04:09:52;;;;;;;;;;;17.60;99.90;;;;;;5074736;28;19985;-60
2023/05/27 04:12:18;;;;;;;;;;;17.60;99.90;;;;;;5074693;28;20068;-61
2023/05/27 04:14:43;;;;;;;;;;;17.70;99.90;;;;;;5074673;28;19981;-63
2023/05/27 04:17:09;;;;;;;;;;;17.80;99.90;;;;;;5074663;28;19989;-62
2023/05/27 04:19:35;;;;;;;;;;;17.70;99.90;;;;;;5074551;28;20025;-62
2023/05/27 04:22:00;;;;;;;;;;;17.70;99.90;;;;;;5074625;28;19981;-61
2023/05/27 04:24:26;;;;;;;;;;;17.70;99.90;;;;;;5074398;28;19985;-61
2023/05/27 04:26:51;;;;;;;;;;;17.80;99.90;;;;;;5074423;28;20021;-61
2023/05/27 04:29:17;;;;;;;;;;;17.80;99.90;;;;;;5074702;28;19985;-61
2023/05/27 04:31:42;;;;;;;;;;;17.70;99.90;;;;;;5073902;28;20078;-62
2023/05/27 04:34:08;;;;;;;;;;;17.70;99.90;;;;;;5074367;28;19981;-64
2023/05/27 04:36:34;;;;;;;;;;;17.70;99.90;;;;;;5074142;28;19992;-62
2023/05/27 04:39:04;;;;;;;;;;;17.70;99.90;;;;;;5074281;28;20080;-61
2023/05/27 04:41:32;;;;;;;;;;;17.70;99.90;;;;;;5074237;28;20424;-62
2023/05/27 04:44:00;;;;;;;;;;;17.80;99.90;;;;;;5073903;28;20021;-63
2023/05/27 04:46:26;;;;;;;;;;;17.80;99.90;;;;;;5073858;28;20456;-62
2023/05/27 04:48:52;;;;;;;;;;;17.90;99.90;;;;;;5074061;28;20048;-65
2023/05/27 04:51:18;;;;;;;;;;;17.90;99.90;;;;;;5074476;28;20066;-64
2023/05/27 04:53:45;;;;;;;;;;;17.90;99.90;;;;;;5074013;28;20068;-66
2023/05/27 04:56:14;;;;;;;;;;;17.90;99.90;;;;;;5074124;28;20021;-64
2023/05/27 04:58:42;;;;;;;;;;;18.00;99.90;;;;;;5074124;28;19986;-64
2023/05/27 05:01:16;;;;;;;;;;;18.10;99.90;;;;;;5073822;28;20072;-66
2023/05/27 05:03:52;;;;;;;;;;;18.20;99.90;;;;;;5073786;28;19986;-66
2023/05/27 05:06:22;;;;;;;;;;;18.20;99.90;;;;;;5073812;28;19992;-66
2023/05/27 05:08:48;;;;;;;;;;;18.30;99.90;;;;;;5073796;28;20058;-65
2023/05/27 05:11:14;;;;;;;;;;;18.30;99.90;;;;;;5074000;28;20080;-63
2023/05/27 05:13:40;;;;;;;;;;;18.30;99.90;;;;;;5073825;28;20088;-64
2023/05/27 05:16:05;;;;;;;;;;;18.20;99.90;;;;;;5073718;28;20047;-64
2023/05/27 05:18:31;;;;;;;;;;;18.10;99.90;;;;;;5073620;28;20075;-64
2023/05/27 05:20:56;;;;;;;;;;;18.10;99.90;;;;;;5073698;28;19982;-65
2023/05/27 05:23:22;;;;;;;;;;;18.20;99.90;;;;;;5073898;28;19989;-64
2023/05/27 05:25:54;;;;;;;;;;;18.10;99.90;;;;;;5073616;28;19993;-64
2023/05/27 05:28:19;;;;;;;;;;;18.00;99.90;;;;;;5073450;28;20448;-64
2023/05/27 05:30:45;;;;;;;;;;;18.00;99.90;;;;;;5073570;28;19982;-65
2023/05/27 05:33:11;;;;;;;;;;;18.10;99.90;;;;;;5073543;28;20035;-65
2023/05/27 05:35:36;;;;;;;;;;;18.20;99.90;;;;;;5073524;28;20401;-65
2023/05/27 05:38:02;;;;;;;;;;;18.20;99.90;;;;;;5073505;28;19986;-66
2023/05/27 05:40:27;;;;;;;;;;;18.30;99.90;;;;;;5073566;28;19981;-63
2023/05/27 05:42:53;;;;;;;;;;;18.30;99.90;;;;;;5073329;28;19982;-63
2023/05/27 05:45:18;;;;;;;;;;;18.40;99.90;;;;;;5077590;28;20032;-63
2023/05/27 05:47:44;;;;;;;;;;;18.40;99.90;;;;;;5077466;28;20005;-64
2023/05/27 05:50:10;;;;;;;;;;;18.40;99.90;;;;;;5077310;28;19997;-66
2023/05/27 05:52:35;;;;;;;;;;;18.50;99.90;;;;;;5077426;28;19993;-67
2023/05/27 05:55:01;;;;;;;;;;;18.50;99.90;;;;;;5077366;28;20034;-64
2023/05/27 05:57:26;;;;;;;;;;;18.60;99.90;;;;;;5077066;28;19985;-65
2023/05/27 05:59:52;;;;;;;;;;;18.70;99.90;;;;;;5077515;28;19986;-66
2023/05/27 06:02:17;;;;;;;;;;;18.90;99.90;;;;;;5077282;28;19981;-66
2023/05/27 06:04:43;;;;;;;;;;;18.80;99.90;;;;;;5077149;28;19982;-65
2023/05/27 06:07:08;;;;;;;;;;;18.90;99.90;;;;;;5076969;28;19986;-64
2023/05/27 06:09:34;;;;;;;;;;;18.90;99.90;;;;;;5077203;28;19982;-64
2023/05/27 06:12:00;;;;;;;;;;;18.90;99.90;;;;;;5077087;28;19981;-63
2023/05/27 06:14:25;;;;;;;;;;;18.80;99.90;;;;;;5076721;28;20035;-63
2023/05/27 06:16:51;;;;;;;;;;;18.90;99.90;;;;;;5076926;28;19985;-65
2023/05/27 06:19:16;;;;;;;;;;;19.00;99.90;;;;;;5077183;28;19991;-66
2023/05/27 06:21:42;;;;;;;;;;;19.10;99.90;;;;;;5076751;28;20068;-65
2023/05/27 06:24:07;;;;;;;;;;;19.20;99.90;;;;;;5076811;28;19982;-63
2023/05/27 06:26:33;;;;;;;;;;;19.30;99.90;;;;;;5076560;28;19982;-64
2023/05/27 06:28:59;;;;;;;;;;;19.30;99.90;;;;;;5076624;28;20009;-66
2023/05/27 06:31:26;;;;;;;;;;;19.40;99.90;;;;;;5076886;28;20491;-66
2023/05/27 06:33:52;;;;;;;;;;;19.40;99.90;;;;;;5076600;28;20025;-64
2023/05/27 06:36:18;;;;;;;;;;;19.50;99.90;;;;;;5076583;28;20047;-64
2023/05/27 06:38:44;;;;;;;;;;;19.50;99.90;;;;;;5076758;28;19999;-65
2023/05/27 06:41:09;;;;;;;;;;;19.40;99.90;;;;;;5076267;28;20498;-62
2023/05/27 06:43:35;;;;;;;;;;;19.40;99.90;;;;;;5076386;28;20017;-63
2023/05/27 06:46:01;;;;;;;;;;;19.30;99.90;;;;;;5076346;28;20360;-63
2023/05/27 06:48:26;;;;;;;;;;;19.20;99.90;;;;;;5076883;28;20009;-62
2023/05/27 06:50:52;;;;;;;;;;;19.10;99.90;;;;;;5076544;28;20002;-63
2023/05/27 06:53:18;;;;;;;;;;;19.10;99.90;;;;;;5076181;28;20448;-61
2023/05/27 06:55:43;;;;;;;;;;;19.20;99.90;;;;;;5075978;28;19981;-60
2023/05/27 06:58:09;;;;;;;;;;;19.10;99.90;;;;;;5076357;28;20028;-63
2023/05/27 07:00:35;;;;;;;;;;;19.10;99.90;;;;;;5075982;28;19989;-63
2023/05/27 07:03:01;;;;;;;;;;;19.10;99.90;;;;;;5076084;28;20038;-64
2023/05/27 07:05:26;;;;;;;;;;;19.20;99.90;;;;;;5076052;28;19986;-64
2023/05/27 07:07:52;;;;;;;;;;;19.10;99.90;;;;;;5075918;28;20012;-64
2023/05/27 07:10:18;;;;;;;;;;;19.00;99.90;;;;;;5075737;28;20035;-62
2023/05/27 07:12:43;;;;;;;;;;;19.10;99.90;;;;;;5076233;28;20479;-62
2023/05/27 07:15:09;;;;;;;;;;;19.10;99.90;;;;;;5075867;28;20381;-62
2023/05/27 07:17:35;;;;;;;;;;;19.20;99.90;;;;;;5075747;28;19985;-62
2023/05/27 07:20:00;;;;;;;;;;;19.30;99.90;;;;;;5076067;28;20071;-61
2023/05/27 07:22:26;;;;;;;;;;;19.20;99.90;;;;;;5076062;28;20466;-64
2023/05/27 07:24:52;;;;;;;;;;;19.20;99.90;;;;;;5075453;28;19988;-62
2023/05/27 07:27:17;;;;;;;;;;;19.10;99.90;;;;;;5075631;28;20005;-63
2023/05/27 07:29:43;;;;;;;;;;;19.30;99.90;;;;;;5075712;28;19982;-62
2023/05/27 07:32:08;;;;;;;;;;;19.50;99.90;;;;;;5075552;28;19986;-64
2023/05/27 07:34:34;;;;;;;;;;;19.60;99.90;;;;;;5075496;28;20008;-64
2023/05/27 07:36:59;;;;;;;;;;;19.60;99.90;;;;;;5075446;28;19982;-62
2023/05/27 07:39:25;;;;;;;;;;;19.60;99.90;;;;;;5075542;28;19985;-62
2023/05/27 07:41:51;;;;;;;;;;;19.60;99.90;;;;;;5075556;28;19986;-64
2023/05/27 07:44:17;;;;;;;;;;;19.70;99.90;;;;;;5075058;28;20432;-64
2023/05/27 07:46:43;;;;;;;;;;;19.70;99.90;;;;;;5075350;28;19982;-63
2023/05/27 07:49:08;;;;;;;;;;;19.70;99.90;;;;;;5075030;28;20009;-64
2023/05/27 07:51:35;;;;;;;;;;;19.80;99.90;;;;;;5075222;28;20013;-64
2023/05/27 07:54:01;;;;;;;;;;;19.90;99.90;;;;;;5074969;28;19996;-62
2023/05/27 07:56:27;;;;;;;;;;;19.70;99.90;;;;;;5074873;28;20088;-63
2023/05/27 07:58:52;;;;;;;;;;;19.70;99.90;;;;;;5075016;28;19981;-61
2023/05/27 08:01:18;;;;;;;;;;;19.70;99.90;;;;;;5075111;28;19981;-62
2023/05/27 08:03:44;;;;;;;;;;;19.60;99.90;;;;;;5074851;28;19992;-64
2023/05/27 08:06:09;;;;;;;;;;;19.60;99.90;;;;;;5074303;28;19989;-62
2023/05/27 08:08:35;;;;;;;;;;;19.60;99.90;;;;;;5074685;28;20005;-62
2023/05/27 08:11:00;;;;;;;;;;;19.60;99.90;;;;;;5074828;28;20016;-61
2023/05/27 08:13:26;;;;;;;;;;;19.70;99.90;;;;;;5074635;28;20412;-62
2023/05/27 08:15:52;;;;;;;;;;;19.60;99.90;;;;;;5074918;28;19985;-64
2023/05/27 08:18:17;;;;;;;;;;;19.60;99.90;;;;;;5074660;28;19981;-64
2023/05/27 08:20:43;;;;;;;;;;;19.80;99.90;;;;;;5074501;28;19981;-63
2023/05/27 08:23:08;;;;;;;;;;;20.00;99.90;;;;;;5074379;28;20199;-62
2023/05/27 08:25:34;;;;;;;;;;;20.30;99.90;;;;;;5074477;28;19986;-63
2023/05/27 08:28:03;;;;;;;;;;;20.50;99.90;;;;;;5074307;28;20009;-64
2023/05/27 08:30:28;;;;;;;;;;;20.80;99.90;;;;;;5074443;28;19981;-62
2023/05/27 08:32:57;;;;;;;;;;;20.90;99.90;;;;;;5074338;28;19989;-63
2023/05/27 08:35:23;;;;;;;;;;;21.00;99.90;;;;;;5074152;28;19992;-64
2023/05/27 08:37:49;;;;;;;;;;;20.80;99.90;;;;;;5074368;28;19993;-63
2023/05/27 08:40:16;;;;;;;;;;;20.70;99.90;;;;;;5074627;28;19993;-65
2023/05/27 08:42:41;;;;;;;;;;;20.70;99.90;;;;;;5073979;28;19992;-65
2023/05/27 08:45:07;;;;;;;;;;;20.60;99.90;;;;;;5073962;28;20025;-61
2023/05/27 08:47:33;;;;;;;;;;;20.70;99.90;;;;;;5074037;28;20006;-62
2023/05/27 08:49:59;;;;;;;;;;;20.80;99.90;;;;;;5073977;28;20051;-63
2023/05/27 08:52:26;;;;;;;;;;;20.90;99.90;;;;;;5073758;28;19981;-63
2023/05/27 08:54:52;;;;;;;;;;;21.10;99.90;;;;;;5073992;28;19985;-63
2023/05/27 08:57:20;;;;;;;;;;;21.30;99.90;;;;;;5073964;28;19981;-64
2023/05/27 08:59:46;;;;;;;;;;;21.30;99.90;;;;;;5073801;28;20444;-63
2023/05/27 09:02:13;;;;;;;;;;;21.40;99.90;;;;;;5073983;28;20061;-64
2023/05/27 09:04:38;;;;;;;;;;;21.60;99.90;;;;;;5073782;28;20466;-64
2023/05/27 09:07:04;;;;;;;;;;;21.90;99.90;;;;;;5073539;28;19982;-65
2023/05/27 09:09:30;;;;;;;;;;;21.90;99.90;;;;;;5073810;28;20475;-62
2023/05/27 09:11:59;;;;;;;;;;;21.80;99.90;;;;;;5073903;28;19982;-64
2023/05/27 09:14:27;;;;;;;;;;;21.70;99.90;;;;;;5073711;28;19981;-64
2023/05/27 09:16:53;;;;;;;;;;;21.70;99.90;;;;;;5073739;28;19985;-62
2023/05/27 09:19:18;;;;;;;;;;;21.60;99.90;;;;;;5071708;28;20080;-62
2023/05/27 09:21:44;;;;;;;;;;;21.50;99.90;;;;;;5073467;28;19981;-65
2023/05/27 09:24:10;;;;;;;;;;;21.50;99.90;;;;;;5073571;28;20031;-61
2023/05/27 09:26:37;;;;;;;;;;;21.30;99.90;;;;;;5073918;28;19985;-63
2023/05/27 09:29:06;;;;;;;;;;;21.40;99.90;;;;;;5073733;28;20108;-63
2023/05/27 09:31:37;;;;;;;;;;;21.50;99.90;;;;;;5073582;28;20029;-62
2023/05/27 09:34:09;;;;;;;;;;;21.80;99.90;;;;;;5073599;28;19981;-62
2023/05/27 09:36:41;;;;;;;;;;;21.90;99.90;;;;;;5073332;28;20051;-62
2023/05/27 09:39:06;;;;;;;;;;;21.90;99.90;;;;;;5073511;28;20076;-62
2023/05/27 09:41:32;;;;;;;;;;;21.90;99.90;;;;;;5073460;28;20028;-62
2023/05/27 09:44:00;;;;;;;;;;;21.90;99.90;;;;;;5073196;28;20025;-63
2023/05/27 09:46:26;;;;;;;;;;;21.90;99.90;;;;;;5073466;28;19981;-62
2023/05/27 09:48:51;;;;;;;;;;;21.90;99.90;;;;;;5073336;28;20104;-61
2023/05/27 09:51:17;;;;;;;;;;;22.10;99.90;;;;;;5073090;28;20005;-62
2023/05/27 09:53:43;;;;;;;;;;;22.00;99.90;;;;;;5073362;28;20364;-62
2023/05/27 09:56:09;;;;;;;;;;;22.10;99.90;;;;;;5073422;28;19982;-64
2023/05/27 09:58:34;;;;;;;;;;;22.20;99.90;;;;;;5073270;28;19982;-62
2023/05/27 10:01:01;;;;;;;;;;;22.30;99.90;;;;;;5073506;28;19989;-62
2023/05/27 10:03:28;;;;;;;;;;;22.30;99.90;;;;;;5073275;28;20040;-63
2023/05/27 10:05:54;;;;;;;;;;;22.30;99.90;;;;;;5072994;28;20432;-62
2023/05/27 10:08:20;;;;;;;;;;;22.30;99.90;;;;;;5073455;28;20418;-62
2023/05/27 10:10:46;;;;;;;;;;;22.40;99.90;;;;;;5073228;28;19987;-62
2023/05/27 10:13:13;;;;;;;;;;;22.50;99.90;;;;;;5073200;28;19988;-65
2023/05/27 10:15:38;;;;;;;;;;;22.70;99.90;;;;;;5073429;28;20355;-64
2023/05/27 10:18:10;;;;;;;;;;;22.80;99.90;;;;;;5073245;28;19993;-64
2023/05/27 10:20:37;;;;;;;;;;;22.90;99.90;;;;;;5073111;28;19981;-65
2023/05/27 10:23:18;;;;;;;;;;;22.80;99.90;;;;;;5073066;28;19986;-64
2023/05/27 10:25:50;;;;;;;;;;;22.70;99.90;;;;;;5073172;28;19981;-63
2023/05/27 10:28:39;;;;;;;;;;;22.60;99.90;;;;;;5072981;28;20006;-63
2023/05/27 10:31:15;;;;;;;;;;;22.50;99.90;;;;;;5076635;28;19989;-64
2023/05/27 10:33:49;;;;;;;;;;;22.50;99.90;;;;;;5076446;28;19985;-62
2023/05/27 10:36:21;;;;;;;;;;;22.60;99.90;;;;;;5076679;28;19982;-62
2023/05/27 10:38:57;;;;;;;;;;;22.60;99.90;;;;;;5076555;28;19992;-64
2023/05/27 10:41:23;;;;;;;;;;;22.90;99.90;;;;;;5076483;28;19992;-61
2023/05/27 10:43:58;;;;;;;;;;;22.90;99.90;;;;;;5076230;28;20017;-62
2023/05/27 10:46:24;;;;;;;;;;;23.10;99.90;;;;;;5076425;28;19985;-62
2023/05/27 10:48:50;;;;;;;;;;;23.20;99.90;;;;;;5076140;28;20369;-64
2023/05/27 10:51:15;;;;;;;;;;;23.10;99.90;;;;;;5076268;28;20068;-61
2023/05/27 10:53:41;;;;;;;;;;;23.20;99.90;;;;;;5076302;28;19985;-62
2023/05/27 10:56:08;;;;;;;;;;;23.30;99.90;;;;;;5076274;28;19982;-64
2023/05/27 10:58:37;;;;;;;;;;;23.30;99.90;;;;;;5076149;28;19989;-65
2023/05/27 11:01:07;;;;;;;;;;;23.30;99.90;;;;;;5076393;28;20132;-63
2023/05/27 11:03:33;;;;;;;;;;;23.30;99.90;;;;;;5076023;28;19989;-63
2023/05/27 11:06:00;;;;;;;;;;;23.30;99.90;;;;;;5075978;28;19986;-63
2023/05/27 11:08:25;;;;;;;;;;;23.40;99.90;;;;;;5076238;28;20010;-62
2023/05/27 11:10:57;;;;;;;;;;;23.20;99.90;;;;;;5076410;28;20084;-63
2023/05/27 11:13:28;;;;;;;;;;;22.80;99.90;;;;;;5075874;28;19989;-63
2023/05/27 11:15:54;;;;;;;;;;;22.70;99.90;;;;;;5075944;28;19989;-62
2023/05/27 11:18:19;;;;;;;;;;;22.60;99.90;;;;;;5075656;28;19986;-64
2023/05/27 11:20:46;;;;;;;;;;;22.70;99.90;;;;;;5075738;28;19982;-64
2023/05/27 11:23:12;;;;;;;;;;;23.10;99.90;;;;;;5075990;28;19982;-63
2023/05/27 11:25:44;;;;;;;;;;;23.70;99.90;;;;;;5075757;28;20096;-61
2023/05/27 11:28:18;;;;;;;;;;;23.80;99.90;;;;;;5075527;28;20013;-65
2023/05/27 11:30:44;;;;;;;;;;;23.70;99.90;;;;;;5075453;28;20450;-62
2023/05/27 11:33:10;;;;;;;;;;;23.90;99.90;;;;;;5075590;28;19986;-64
2023/05/27 11:35:35;;;;;;;;;;;24.40;99.90;;;;;;5075534;28;20032;-64
2023/05/27 11:38:04;;;;;;;;;;;24.60;99.90;;;;;;5075719;28;19990;-64
2023/05/27 11:40:38;;;;;;;;;;;24.70;99.50;;;;;;5074638;28;19990;-62
2023/05/27 11:43:04;;;;;;;;;;;24.40;99.40;;;;;;5075170;28;20046;-64
2023/05/27 11:45:34;;;;;;;;;;;24.40;99.50;;;;;;5075220;28;19982;-64
2023/05/27 11:48:00;;;;;;;;;;;24.60;99.90;;;;;;5075115;28;20009;-65
2023/05/27 11:50:27;;;;;;;;;;;24.80;99.90;;;;;;5075439;28;20092;-64
2023/05/27 11:52:54;;;;;;;;;;;24.70;99.90;;;;;;5075282;28;19985;-62
2023/05/27 11:55:20;;;;;;;;;;;25.10;98.90;;;;;;5075342;28;20078;-65
2023/05/27 11:57:46;;;;;;;;;;;25.00;97.90;;;;;;5075388;28;20080;-62
2023/05/27 12:00:12;;;;;;;;;;;25.00;97.40;;;;;;5074821;28;20551;-63
2023/05/27 12:02:37;;;;;;;;;;;24.80;98.30;;;;;;5074969;28;20402;-61
2023/05/27 12:05:06;;;;;;;;;;;24.60;98.00;;;;;;5074918;28;20084;-66
2023/05/27 12:07:31;;;;;;;;;;;24.60;98.20;;;;;;5074815;28;20107;-63
2023/05/27 12:09:57;;;;;;;;;;;24.20;98.80;;;;;;5074934;28;20028;-64
2023/05/27 12:12:22;;;;;;;;;;;23.90;99.60;;;;;;5074687;28;20077;-63
2023/05/27 12:14:48;;;;;;;;;;;24.10;99.90;;;;;;5074618;28;20027;-64
2023/05/27 12:17:14;;;;;;;;;;;24.20;99.30;;;;;;5074722;28;19982;-62
2023/05/27 12:19:39;;;;;;;;;;;24.30;99.90;;;;;;5074521;28;19992;-61
2023/05/27 12:22:05;;;;;;;;;;;24.40;99.90;;;;;;5074558;28;20072;-64
2023/05/27 12:24:30;;;;;;;;;;;24.90;99.60;;;;;;5074647;28;19982;-64
2023/05/27 12:26:56;;;;;;;;;;;25.20;98.30;;;;;;5074440;28;20004;-65
2023/05/27 12:29:24;;;;;;;;;;;25.60;97.70;;;;;;5074308;28;20005;-62
2023/05/27 12:31:50;;;;;;;;;;;26.10;98.90;;;;;;5074663;28;19990;-62
2023/05/27 12:34:15;;;;;;;;;;;26.00;94.80;;;;;;5074268;28;19992;-64
2023/05/27 12:36:41;;;;;;;;;;;25.70;95.60;;;;;;5074354;28;19982;-62
2023/05/27 12:39:06;;;;;;;;;;;25.70;99.10;;;;;;5074255;28;20090;-62
2023/05/27 12:41:32;;;;;;;;;;;25.40;96.00;;;;;;5074340;28;19983;-62
2023/05/27 12:43:59;;;;;;;;;;;25.00;95.70;;;;;;5073742;28;20017;-63
2023/05/27 12:46:24;;;;;;;;;;;25.00;96.60;;;;;;5074107;28;20401;-63
2023/05/27 12:48:50;;;;;;;;;;;25.60;97.70;;;;;;5074273;28;20010;-64
2023/05/27 12:51:15;;;;;;;;;;;26.10;96.50;;;;;;5073953;28;20438;-62
2023/05/27 12:53:41;;;;;;;;;;;26.30;93.90;;;;;;5073846;28;20035;-61
2023/05/27 12:56:06;;;;;;;;;;;26.50;94.60;;;;;;5074260;28;19985;-65
2023/05/27 12:58:32;;;;;;;;;;;26.80;92.00;;;;;;5073681;28;20387;-62
2023/05/27 13:00:58;;;;;;;;;;;26.60;92.80;;;;;;5073916;28;20020;-63
2023/05/27 13:03:24;;;;;;;;;;;26.70;91.90;;;;;;5073999;28;19981;-63
2023/05/27 13:05:49;;;;;;;;;;;26.80;92.80;;;;;;5073867;28;20463;-62
2023/05/27 13:08:15;;;;;;;;;;;27.00;92.00;;;;;;5073707;28;20012;-62
2023/05/27 13:10:40;;;;;;;;;;;27.50;91.80;;;;;;5073810;28;20025;-63
2023/05/27 13:13:06;;;;;;;;;;;27.50;90.70;;;;;;5074033;28;19985;-62
2023/05/27 13:15:32;;;;;;;;;;;27.20;89.90;;;;;;5073746;28;19982;-62
2023/05/27 13:17:59;;;;;;;;;;;27.60;89.30;;;;;;5073749;28;20029;-62
2023/05/27 13:20:25;;;;;;;;;;;27.50;90.20;;;;;;5073800;28;19986;-64
2023/05/27 13:22:52;;;;;;;;;;;27.50;88.50;;;;;;5073648;28;20348;-62
2023/05/27 13:25:19;;;;;;;;;;;27.20;89.10;;;;;;5073960;28;20032;-61
2023/05/27 13:27:45;;;;;;;;;;;27.30;90.40;;;;;;5073503;28;20055;-62
2023/05/27 13:30:12;;;;;;;;;;;27.40;87.40;;;;;;5073511;28;20398;-64
2023/05/27 13:32:38;;;;;;;;;;;27.40;86.80;;;;;;5073562;28;19985;-62
2023/05/27 13:35:04;;;;;;;;;;;26.90;86.60;;;;;;5073663;28;19985;-64
2023/05/27 13:37:29;;;;;;;;;;;26.60;89.60;;;;;;5073440;28;19990;-63
2023/05/27 13:39:57;;;;;;;;;;;26.30;90.00;;;;;;5073685;28;19981;-64
2023/05/27 13:42:22;;;;;;;;;;;26.20;90.20;;;;;;5073593;28;19986;-65
2023/05/27 13:44:48;;;;;;;;;;;26.10;89.70;;;;;;5073288;28;20097;-63
2023/05/27 13:47:13;;;;;;;;;;;26.00;89.70;;;;;;5073340;28;19982;-64
2023/05/27 13:49:39;;;;;;;;;;;25.90;90.10;;;;;;5073468;28;20001;-65
2023/05/27 13:52:05;;;;;;;;;;;25.80;90.60;;;;;;5073426;28;20123;-62
2023/05/27 13:54:31;;;;;;;;;;;25.60;92.60;;;;;;5073607;28;20448;-65
2023/05/27 13:56:56;;;;;;;;;;;25.50;91.60;;;;;;5073212;28;19981;-65
2023/05/27 13:59:22;;;;;;;;;;;25.20;92.70;;;;;;5073326;28;20487;-62
2023/05/27 14:01:49;;;;;;;;;;;25.00;94.40;;;;;;5073254;28;19982;-63
2023/05/27 14:04:15;;;;;;;;;;;24.80;96.40;;;;;;5074275;28;20031;-64
2023/05/27 14:06:41;;;;;;;;;;;24.40;96.60;;;;;;5077286;28;19982;-63
2023/05/27 14:09:06;;;;;;;;;;;23.10;99.90;;;;;;5077086;28;20092;-63
2023/05/27 14:11:32;;;;;;;;;;;20.50;99.90;;;;;;5077189;28;19989;-62